Time;durP1;ratioP1;P1;durP2;ratioP2;P2;SDS_P1;SDS_P2;PMS_P1;PMS_P2;Temp;Humidity;BMP_temperature;BMP_pressure;BME280_temperature;BME280_humidity;BME280_pressure;Samples;Min_cycle;Max_cycle;Signal;HPM_P1;HPM_P2
2023/12/08 00:02:24;;;;;;;5.30;3.63;;;;;2.70;100343.00;;;;5046765;28;20240;-72
2023/12/08 00:05:10;;;;;;;5.10;3.53;;;;;2.70;100331.00;;;;5047923;28;20391;-72
2023/12/08 00:07:56;;;;;;;5.37;3.43;;;;;2.70;100334.00;;;;5046342;28;20234;-73
2023/12/08 00:10:43;;;;;;;8.30;4.20;;;;;2.70;100320.00;;;;5042682;28;20233;-72
2023/12/08 00:13:31;;;;;;;9.50;4.53;;;;;2.80;100320.00;;;;5041031;28;20229;-71
2023/12/08 00:16:17;;;;;;;6.07;3.47;;;;;2.70;100310.00;;;;5044660;28;20248;-74
2023/12/08 00:19:04;;;;;;;5.37;3.53;;;;;2.70;100289.00;;;;5044588;28;20246;-72
2023/12/08 00:21:50;;;;;;;6.87;4.13;;;;;2.60;100283.00;;;;5044823;28;20240;-72
2023/12/08 00:24:36;;;;;;;5.37;3.53;;;;;2.60;100266.00;;;;5039752;28;20237;-74
2023/12/08 00:27:23;;;;;;;6.63;3.50;;;;;2.60;100279.00;;;;5032827;28;20773;-72
2023/12/08 00:30:12;;;;;;;7.80;3.87;;;;;2.70;100274.00;;;;5040065;28;20600;-71
2023/12/08 00:32:59;;;;;;;6.10;3.53;;;;;2.80;100278.00;;;;5046507;28;20228;-72
2023/12/08 00:35:48;;;;;;;7.23;3.90;;;;;2.80;100246.00;;;;5046448;28;20252;-73
2023/12/08 00:38:34;;;;;;;7.17;3.27;;;;;2.80;100253.00;;;;5046435;28;20306;-72
2023/12/08 00:41:20;;;;;;;7.73;4.07;;;;;2.70;100248.00;;;;5039141;28;20246;-72
2023/12/08 00:44:08;;;;;;;6.90;4.13;;;;;2.80;100239.00;;;;5046317;28;20235;-73
2023/12/08 00:46:56;;;;;;;4.30;3.37;;;;;2.70;100246.00;;;;5045848;28;20236;-72
2023/12/08 00:49:42;;;;;;;6.17;3.70;;;;;2.80;100276.00;;;;5040913;28;20261;-70
2023/12/08 00:52:29;;;;;;;5.87;3.73;;;;;2.90;100272.00;;;;5044740;28;20236;-73
2023/12/08 00:55:15;;;;;;;5.97;3.90;;;;;2.80;100261.00;;;;5040861;28;20347;-72
2023/12/08 00:58:01;;;;;;;6.77;4.10;;;;;2.90;100263.00;;;;5046874;28;20233;-71
2023/12/08 01:00:48;;;;;;;6.30;4.23;;;;;2.90;100243.00;;;;5041767;28;20300;-74
2023/12/08 01:03:36;;;;;;;8.80;3.80;;;;;2.80;100248.00;;;;5043351;28;20733;-73
2023/12/08 01:06:23;;;;;;;5.93;3.80;;;;;2.80;100246.00;;;;5045057;28;20236;-72
2023/12/08 01:09:10;;;;;;;6.73;3.40;;;;;2.90;100246.00;;;;5042477;28;20270;-72
2023/12/08 01:11:57;;;;;;;5.87;3.67;;;;;2.90;100242.00;;;;5042641;28;20708;-73
2023/12/08 01:14:43;;;;;;;6.63;3.63;;;;;2.80;100237.00;;;;5045792;28;20241;-73
2023/12/08 01:17:29;;;;;;;7.80;3.90;;;;;2.90;100240.00;;;;5041046;28;20239;-71
2023/12/08 01:20:18;;;;;;;5.27;3.87;;;;;2.90;100236.00;;;;5039401;28;20339;-73
2023/12/08 01:23:07;;;;;;;6.73;4.20;;;;;2.90;100245.00;;;;5045966;28;20725;-74
2023/12/08 01:25:56;;;;;;;7.10;3.53;;;;;3.00;100250.00;;;;5043766;28;20308;-74
2023/12/08 01:28:42;;;;;;;6.87;4.20;;;;;3.00;100228.00;;;;5040931;28;20721;-72
2023/12/08 01:31:28;;;;;;;6.50;4.10;;;;;2.90;100231.00;;;;5039562;28;20769;-72
2023/12/08 01:34:15;;;;;;;5.30;3.13;;;;;2.90;100227.00;;;;5044288;28;20235;-72
2023/12/08 01:37:04;;;;;;;7.03;4.33;;;;;3.00;100229.00;;;;5034690;28;20315;-73
2023/12/08 01:39:51;;;;;;;6.03;4.13;;;;;2.90;100222.00;;;;5036959;28;20339;-70
2023/12/08 01:42:37;;;;;;;4.93;3.60;;;;;2.90;100229.00;;;;5046580;28;20243;-73
2023/12/08 01:45:23;;;;;;;6.63;4.30;;;;;2.90;100216.00;;;;5042561;28;20761;-72
2023/12/08 01:48:11;;;;;;;4.73;3.47;;;;;3.00;100229.00;;;;5038491;28;20385;-73
2023/12/08 01:50:58;;;;;;;7.90;3.87;;;;;2.90;100218.00;;;;5045834;28;20223;-72
2023/12/08 01:53:47;;;;;;;5.50;4.07;;;;;3.00;100218.00;;;;5046725;28;20274;-70
2023/12/08 01:56:34;;;;;;;6.90;3.37;;;;;2.90;100210.00;;;;5046634;28;20339;-72
2023/12/08 01:59:21;;;;;;;5.60;3.93;;;;;2.90;100210.00;;;;5039293;28;20320;-69
2023/12/08 02:02:07;;;;;;;9.47;4.13;;;;;3.00;100215.00;;;;5040316;28;20352;-71
2023/12/08 02:04:58;;;;;;;7.37;3.60;;;;;3.00;100205.00;;;;5045138;28;20234;-72
2023/12/08 02:07:45;;;;;;;4.13;3.17;;;;;2.80;100209.00;;;;5046224;28;20995;-72
2023/12/08 02:10:33;;;;;;;6.13;3.43;;;;;2.90;100196.00;;;;5040523;28;20228;-72
2023/12/08 02:13:19;;;;;;;5.43;3.67;;;;;2.90;100199.00;;;;5045792;28;20234;-74
2023/12/08 02:16:10;;;;;;;3.73;2.83;;;;;2.80;100208.00;;;;5043129;28;20227;-73
2023/12/08 02:18:58;;;;;;;4.00;2.80;;;;;2.90;100199.00;;;;5040037;28;20607;-73
2023/12/08 02:21:46;;;;;;;6.10;3.60;;;;;2.80;100207.00;;;;5035990;28;20703;-71
2023/12/08 02:24:33;;;;;;;7.80;3.67;;;;;2.80;100191.00;;;;5038992;28;20232;-71
2023/12/08 02:27:20;;;;;;;6.60;3.80;;;;;2.80;100194.00;;;;5039693;28;20748;-73
2023/12/08 02:30:08;;;;;;;7.07;4.10;;;;;2.80;100200.00;;;;5039815;28;20606;-72
2023/12/08 02:33:00;;;;;;;3.93;3.07;;;;;2.80;100204.00;;;;5045413;28;20384;-73
2023/12/08 02:35:47;;;;;;;5.57;3.07;;;;;2.80;100198.00;;;;5041187;28;20229;-72
2023/12/08 02:38:34;;;;;;;6.00;3.33;;;;;2.80;100195.00;;;;5037390;28;20754;-74
2023/12/08 02:41:22;;;;;;;4.23;3.27;;;;;2.80;100189.00;;;;5046243;28;20582;-73
2023/12/08 02:44:08;;;;;;;3.13;2.80;;;;;2.80;100199.00;;;;5043874;28;20763;-73
2023/12/08 02:46:55;;;;;;;5.23;3.40;;;;;2.80;100190.00;;;;5042563;28;20312;-71
2023/12/08 02:49:41;;;;;;;7.60;3.70;;;;;2.80;100188.00;;;;5039780;28;20219;-72
2023/12/08 02:52:27;;;;;;;6.63;3.47;;;;;2.80;100178.00;;;;5042042;28;20710;-73
2023/12/08 02:55:13;;;;;;;5.03;3.57;;;;;2.80;100185.00;;;;5041048;28;20638;-72
2023/12/08 02:58:01;;;;;;;3.37;2.50;;;;;2.70;100184.00;;;;5041935;28;20228;-73
2023/12/08 03:00:48;;;;;;;4.63;3.10;;;;;2.70;100177.00;;;;5037417;28;20228;-73
2023/12/08 03:03:34;;;;;;;5.50;3.87;;;;;2.80;100177.00;;;;5043127;28;20229;-72
2023/12/08 03:06:20;;;;;;;5.20;3.47;;;;;2.80;100166.00;;;;5043216;28;20228;-72
2023/12/08 03:09:07;;;;;;;5.67;2.87;;;;;2.80;100157.00;;;;5041118;28;20268;-71
2023/12/08 03:11:53;;;;;;;5.63;3.70;;;;;2.70;100157.00;;;;5031792;28;20234;-73
2023/12/08 03:14:41;;;;;;;7.80;4.43;;;;;2.80;100140.00;;;;5038186;28;20280;-74
2023/12/08 03:17:27;;;;;;;4.90;3.70;;;;;2.80;100129.00;;;;5037272;28;20326;-72
2023/12/08 03:20:14;;;;;;;4.47;3.47;;;;;2.80;100145.00;;;;5037303;28;20742;-72
2023/12/08 03:23:01;;;;;;;4.30;3.43;;;;;2.80;100146.00;;;;5042294;28;20238;-72
2023/12/08 03:25:47;;;;;;;8.83;4.43;;;;;2.90;100149.00;;;;5033450;28;20348;-73
2023/12/08 03:28:33;;;;;;;7.03;3.93;;;;;2.90;100141.00;;;;5035988;28;20248;-73
2023/12/08 03:31:26;;;;;;;5.27;3.47;;;;;2.90;100138.00;;;;5042259;28;20252;-73
2023/12/08 03:34:12;;;;;;;8.40;4.00;;;;;2.90;100139.00;;;;5044375;28;20587;-69
2023/12/08 03:36:58;;;;;;;13.80;3.90;;;;;2.90;100121.00;;;;5042936;28;20730;-71
2023/12/08 03:39:45;;;;;;;4.90;3.37;;;;;2.90;100116.00;;;;5034448;28;20232;-71
2023/12/08 03:42:35;;;;;;;5.63;3.10;;;;;2.80;100120.00;;;;5036991;28;20282;-72
2023/12/08 03:45:21;;;;;;;4.07;3.27;;;;;2.80;100118.00;;;;5037559;28;21545;-70
2023/12/08 03:48:09;;;;;;;7.27;4.20;;;;;2.80;100111.00;;;;5044047;28;20321;-72
2023/12/08 03:50:55;;;;;;;4.97;3.70;;;;;2.80;100100.00;;;;5047310;28;20237;-74
2023/12/08 03:53:41;;;;;;;6.30;3.93;;;;;2.90;100111.00;;;;5038777;28;20260;-72
2023/12/08 03:56:28;;;;;;;5.43;3.70;;;;;2.80;100112.00;;;;5036643;28;20228;-72
2023/12/08 03:59:14;;;;;;;6.13;3.60;;;;;2.90;100110.00;;;;5044577;28;20232;-72
2023/12/08 04:02:01;;;;;;;6.07;4.40;;;;;2.90;100112.00;;;;5039680;28;20247;-73
2023/12/08 04:04:49;;;;;;;6.87;4.80;;;;;2.90;100114.00;;;;5050883;28;20720;-72
2023/12/08 04:07:35;;;;;;;5.70;3.27;;;;;2.90;100111.00;;;;5046775;28;20356;-72
2023/12/08 04:10:21;;;;;;;6.53;4.30;;;;;2.90;100109.00;;;;5043548;28;20257;-70
2023/12/08 04:13:08;;;;;;;7.07;3.67;;;;;2.80;100106.00;;;;5043710;28;20236;-73
2023/12/08 04:15:54;;;;;;;6.30;4.07;;;;;2.80;100095.00;;;;5044007;28;20991;-72
2023/12/08 04:18:41;;;;;;;7.10;4.37;;;;;2.80;100101.00;;;;5037655;28;20236;-72
2023/12/08 04:21:29;;;;;;;7.07;4.33;;;;;2.70;100092.00;;;;5048147;28;20240;-76
2023/12/08 04:24:15;;;;;;;8.23;3.37;;;;;2.70;100093.00;;;;5042785;28;20286;-75
2023/12/08 04:27:01;;;;;;;6.93;4.37;;;;;2.60;100084.00;;;;5042443;28;20230;-73
2023/12/08 04:29:47;;;;;;;6.33;3.90;;;;;2.50;100093.00;;;;5030563;28;20682;-73
2023/12/08 04:32:33;;;;;;;6.77;4.03;;;;;2.50;100084.00;;;;5043745;28;20727;-73
2023/12/08 04:35:20;;;;;;;7.83;4.40;;;;;2.60;100073.00;;;;5041863;28;20239;-74
2023/12/08 04:38:07;;;;;;;4.83;3.40;;;;;2.70;100067.00;;;;5043916;28;20220;-73
2023/12/08 04:40:54;;;;;;;5.93;4.17;;;;;2.70;100069.00;;;;5041116;28;20239;-73
2023/12/08 04:43:40;;;;;;;7.13;4.30;;;;;2.80;100090.00;;;;5034944;28;20730;-72
2023/12/08 04:46:26;;;;;;;6.63;3.87;;;;;2.80;100089.00;;;;5037788;28;20713;-72
2023/12/08 04:49:13;;;;;;;6.13;3.83;;;;;2.80;100085.00;;;;5039543;28;20603;-73
2023/12/08 04:51:59;;;;;;;9.20;3.93;;;;;2.80;100077.00;;;;5044196;28;20894;-71
2023/12/08 04:54:49;;;;;;;8.33;4.40;;;;;2.80;100084.00;;;;5040799;28;20224;-72
2023/12/08 04:57:35;;;;;;;7.17;3.80;;;;;2.80;100068.00;;;;5041886;28;20229;-73
2023/12/08 05:00:22;;;;;;;6.37;3.30;;;;;2.80;100078.00;;;;5044601;28;20905;-72
2023/12/08 05:03:10;;;;;;;4.80;3.43;;;;;2.90;100078.00;;;;5043367;28;20237;-72
2023/12/08 05:05:57;;;;;;;5.40;3.60;;;;;2.80;100073.00;;;;5043400;28;20227;-72
2023/12/08 05:08:43;;;;;;;7.13;4.13;;;;;2.70;100068.00;;;;5043055;28;20236;-72
2023/12/08 05:11:31;;;;;;;5.20;3.67;;;;;2.70;100068.00;;;;5046427;28;20239;-72
2023/12/08 05:14:19;;;;;;;6.83;4.33;;;;;2.80;100066.00;;;;5044633;28;20235;-72
2023/12/08 05:17:05;;;;;;;7.67;4.47;;;;;2.70;100075.00;;;;5046493;28;20232;-73
2023/12/08 05:19:52;;;;;;;5.87;4.57;;;;;2.70;100061.00;;;;5046324;28;20221;-72
2023/12/08 05:22:39;;;;;;;6.97;3.63;;;;;2.70;100065.00;;;;5041516;28;20738;-71
2023/12/08 05:25:25;;;;;;;8.33;4.83;;;;;2.80;100083.00;;;;5046294;28;20237;-71
2023/12/08 05:28:13;;;;;;;3.93;3.50;;;;;2.80;100091.00;;;;5042426;28;20240;-73
2023/12/08 05:30:59;;;;;;;4.33;3.30;;;;;2.90;100083.00;;;;5036884;28;20229;-71
2023/12/08 05:33:46;;;;;;;9.30;4.43;;;;;2.90;100083.00;;;;5046946;28;20760;-73
2023/12/08 05:36:32;;;;;;;7.47;5.17;;;;;2.90;100089.00;;;;5046110;28;20377;-74
2023/12/08 05:39:19;;;;;;;5.63;4.07;;;;;2.90;100086.00;;;;5045411;28;20236;-72
2023/12/08 05:42:05;;;;;;;6.00;3.17;;;;;2.90;100097.00;;;;5043648;28;20306;-72
2023/12/08 05:44:53;;;;;;;7.73;4.63;;;;;2.90;100101.00;;;;5039674;28;20969;-73
2023/12/08 05:47:40;;;;;;;7.03;4.23;;;;;2.90;100094.00;;;;5039179;28;20235;-72
2023/12/08 05:50:27;;;;;;;7.33;3.77;;;;;2.90;100105.00;;;;5044002;28;20364;-74
2023/12/08 05:53:14;;;;;;;6.03;3.67;;;;;2.90;100111.00;;;;5042586;28;20240;-73
2023/12/08 05:56:02;;;;;;;7.03;3.53;;;;;2.90;100103.00;;;;5048517;28;20265;-72
2023/12/08 05:58:49;;;;;;;6.57;4.87;;;;;2.90;100111.00;;;;5041006;28;20659;-73
2023/12/08 06:01:36;;;;;;;7.10;4.27;;;;;2.80;100102.00;;;;5046205;28;20237;-74
2023/12/08 06:04:23;;;;;;;6.33;4.43;;;;;2.70;100107.00;;;;5031430;28;20740;-73
2023/12/08 06:07:10;;;;;;;6.10;3.73;;;;;2.80;100100.00;;;;5041140;28;20232;-72
2023/12/08 06:09:57;;;;;;;8.90;5.23;;;;;2.80;100101.00;;;;5040909;28;20318;-72
2023/12/08 06:12:43;;;;;;;8.17;5.20;;;;;2.80;100096.00;;;;5038127;28;20293;-72
2023/12/08 06:15:30;;;;;;;6.10;4.30;;;;;2.80;100100.00;;;;5043820;28;20237;-72
2023/12/08 06:18:17;;;;;;;8.77;4.03;;;;;2.90;100101.00;;;;5046046;28;20228;-72
2023/12/08 06:21:04;;;;;;;7.30;5.03;;;;;2.90;100097.00;;;;5041099;28;20316;-73
2023/12/08 06:23:50;;;;;;;10.93;5.33;;;;;2.90;100084.00;;;;5037422;28;20240;-71
2023/12/08 06:26:38;;;;;;;8.47;4.50;;;;;2.90;100092.00;;;;5043097;28;20239;-72
2023/12/08 06:29:24;;;;;;;8.90;4.33;;;;;2.90;100096.00;;;;5041630;28;20371;-73
2023/12/08 06:32:14;;;;;;;9.87;5.43;;;;;2.90;100092.00;;;;5039292;28;20243;-73
2023/12/08 06:35:01;;;;;;;10.73;5.50;;;;;2.90;100089.00;;;;5039679;28;20369;-73
2023/12/08 06:37:47;;;;;;;16.03;5.43;;;;;2.90;100108.00;;;;5039368;28;20228;-74
2023/12/08 06:40:34;;;;;;;10.20;5.17;;;;;2.90;100084.00;;;;5044917;28;20396;-72
2023/12/08 06:43:20;;;;;;;9.90;5.47;;;;;2.90;100089.00;;;;5041540;28;20232;-73
2023/12/08 06:46:07;;;;;;;9.83;4.80;;;;;3.00;100095.00;;;;5044750;28;20298;-73
2023/12/08 06:48:53;;;;;;;9.30;5.70;;;;;3.00;100111.00;;;;5045388;28;20242;-72
2023/12/08 06:51:41;;;;;;;8.53;5.37;;;;;3.00;100106.00;;;;5043770;28;20248;-72
2023/12/08 06:54:27;;;;;;;7.60;4.70;;;;;3.00;100090.00;;;;5043912;28;20231;-73
2023/12/08 06:57:14;;;;;;;9.90;5.37;;;;;3.10;100079.00;;;;5045912;28;20239;-72
2023/12/08 07:00:00;;;;;;;8.77;5.17;;;;;3.00;100073.00;;;;5035438;28;20224;-73
2023/12/08 07:02:47;;;;;;;9.53;5.20;;;;;3.00;100080.00;;;;5038915;28;20793;-72
2023/12/08 07:05:33;;;;;;;10.57;5.63;;;;;3.10;100088.00;;;;5039128;28;20742;-72
2023/12/08 07:08:21;;;;;;;6.87;5.00;;;;;3.10;100100.00;;;;5041995;28;20259;-72
2023/12/08 07:11:08;;;;;;;10.50;6.47;;;;;3.20;100096.00;;;;5039818;28;20708;-73
2023/12/08 07:13:54;;;;;;;8.47;4.93;;;;;3.20;100104.00;;;;5037290;28;20228;-72
2023/12/08 07:16:43;;;;;;;13.23;5.47;;;;;3.20;100098.00;;;;5052060;28;20247;-75
2023/12/08 07:19:29;;;;;;;7.07;4.83;;;;;3.20;100092.00;;;;5043531;28;20323;-73
2023/12/08 07:22:16;;;;;;;6.63;4.73;;;;;3.30;100099.00;;;;5045053;28;20243;-74
2023/12/08 07:25:05;;;;;;;8.63;4.53;;;;;3.30;100106.00;;;;5038439;28;20234;-73
2023/12/08 07:27:52;;;;;;;6.50;4.53;;;;;3.20;100090.00;;;;5044417;28;20395;-74
2023/12/08 07:30:38;;;;;;;8.03;4.50;;;;;3.20;100098.00;;;;5044329;28;20286;-70
2023/12/08 07:33:25;;;;;;;6.60;4.87;;;;;3.20;100105.00;;;;5038864;28;20705;-74
2023/12/08 07:36:11;;;;;;;10.13;5.47;;;;;3.20;100095.00;;;;5037519;28;20291;-74
2023/12/08 07:38:59;;;;;;;8.03;5.17;;;;;3.20;100104.00;;;;5037164;28;20275;-74
2023/12/08 07:41:47;;;;;;;9.93;5.17;;;;;3.20;100108.00;;;;5044542;28;20674;-74
2023/12/08 07:44:34;;;;;;;8.10;5.20;;;;;3.20;100102.00;;;;5044361;28;20239;-73
2023/12/08 07:47:21;;;;;;;7.40;5.37;;;;;3.20;100105.00;;;;5031267;28;20224;-73
2023/12/08 07:50:08;;;;;;;10.53;5.13;;;;;3.30;100106.00;;;;5044566;28;20273;-74
2023/12/08 07:52:54;;;;;;;7.43;5.27;;;;;3.30;100100.00;;;;5043932;28;20231;-73
2023/12/08 07:55:41;;;;;;;9.30;5.63;;;;;3.30;100104.00;;;;5041170;28;20344;-74
2023/12/08 07:58:29;;;;;;;10.93;6.30;;;;;3.20;100106.00;;;;5033306;28;20240;-73
2023/12/08 08:01:16;;;;;;;9.57;5.20;;;;;3.30;100100.00;;;;5038121;28;20239;-73
2023/12/08 08:04:02;;;;;;;9.57;5.77;;;;;3.30;100108.00;;;;5038041;28;21021;-73
2023/12/08 08:06:49;;;;;;;10.67;5.67;;;;;3.40;100108.00;;;;5039076;28;20310;-71
2023/12/08 08:09:35;;;;;;;9.03;5.43;;;;;3.40;100108.00;;;;5037029;28;20252;-72
2023/12/08 08:12:22;;;;;;;9.13;6.83;;;;;3.40;100119.00;;;;5037488;28;20247;-72
2023/12/08 08:15:09;;;;;;;9.80;5.00;;;;;3.50;100120.00;;;;5041727;28;20363;-72
2023/12/08 08:17:56;;;;;;;10.20;5.73;;;;;3.50;100116.00;;;;5043355;28;20251;-73
2023/12/08 08:20:43;;;;;;;11.00;5.67;;;;;3.50;100124.00;;;;5045665;28;20266;-73
2023/12/08 08:23:29;;;;;;;10.40;6.50;;;;;3.50;100115.00;;;;5044063;28;20228;-71
2023/12/08 08:26:15;;;;;;;8.10;5.60;;;;;3.60;100124.00;;;;5034445;28;20733;-72
2023/12/08 08:29:02;;;;;;;10.47;5.47;;;;;3.50;100117.00;;;;5044592;28;20232;-73
2023/12/08 08:31:52;;;;;;;12.10;6.00;;;;;3.60;100121.00;;;;5035692;28;20255;-72
2023/12/08 08:34:39;;;;;;;13.77;5.60;;;;;3.60;100109.00;;;;5038840;28;20237;-71
2023/12/08 08:37:25;;;;;;;9.90;6.00;;;;;3.60;100118.00;;;;5045550;28;20291;-71
2023/12/08 08:40:12;;;;;;;8.90;5.87;;;;;3.60;100120.00;;;;5045462;28;20231;-71
2023/12/08 08:42:59;;;;;;;12.37;6.80;;;;;3.70;100119.00;;;;5039993;28;20228;-71
2023/12/08 08:45:45;;;;;;;10.50;6.67;;;;;3.70;100125.00;;;;5058126;28;20233;-72
2023/12/08 08:48:33;;;;;;;9.37;6.10;;;;;3.80;100124.00;;;;5064626;28;20236;-73
2023/12/08 08:51:19;;;;;;;9.90;5.73;;;;;3.80;100128.00;;;;5068352;28;20258;-72
2023/12/08 08:54:05;;;;;;;10.33;6.70;;;;;3.80;100121.00;;;;5072585;28;20286;-72
2023/12/08 08:56:52;;;;;;;10.40;6.70;;;;;3.80;100122.00;;;;5064623;28;20225;-73
2023/12/08 08:59:39;;;;;;;13.23;6.73;;;;;3.80;100134.00;;;;5059941;28;20239;-71
2023/12/08 09:02:26;;;;;;;9.33;5.47;;;;;3.80;100140.00;;;;5074795;28;20231;-73
2023/12/08 09:05:14;;;;;;;8.67;5.57;;;;;3.80;100133.00;;;;5067000;28;20244;-73
2023/12/08 09:08:00;;;;;;;17.57;6.90;;;;;3.80;100129.00;;;;5047171;28;20270;-71
2023/12/08 09:10:46;;;;;;;9.10;4.97;;;;;3.90;100129.00;;;;5047968;28;20619;-75
2023/12/08 09:13:34;;;;;;;9.63;6.00;;;;;3.90;100136.00;;;;5043728;28;20820;-73
2023/12/08 09:16:20;;;;;;;12.37;6.37;;;;;3.90;100138.00;;;;5045894;28;20229;-72
2023/12/08 09:19:07;;;;;;;10.57;6.10;;;;;4.00;100144.00;;;;5039937;28;20278;-73
2023/12/08 09:21:54;;;;;;;9.47;5.23;;;;;4.10;100140.00;;;;5045787;28;20287;-72
2023/12/08 09:24:41;;;;;;;9.20;5.87;;;;;4.00;100140.00;;;;5046134;28;20240;-73
2023/12/08 09:27:27;;;;;;;11.23;6.57;;;;;4.10;100138.00;;;;5041889;28;20334;-73
2023/12/08 09:30:14;;;;;;;11.37;6.03;;;;;4.10;100142.00;;;;5035866;28;20805;-73
2023/12/08 09:33:00;;;;;;;10.37;6.27;;;;;4.10;100144.00;;;;5047099;28;20602;-72
2023/12/08 09:35:47;;;;;;;9.00;5.60;;;;;4.20;100145.00;;;;5044077;28;20726;-73
2023/12/08 09:38:34;;;;;;;7.27;5.33;;;;;4.20;100137.00;;;;5042543;28;20237;-74
2023/12/08 09:41:21;;;;;;;8.40;6.17;;;;;4.20;100141.00;;;;5042924;28;20832;-74
2023/12/08 09:44:12;;;;;;;11.10;6.70;;;;;4.20;100147.00;;;;5045787;28;20241;-72
2023/12/08 09:47:04;;;;;;;15.13;7.53;;;;;4.30;100153.00;;;;5045600;28;20221;-73
2023/12/08 09:49:52;;;;;;;10.57;6.03;;;;;4.30;100156.00;;;;5044064;28;20240;-72
2023/12/08 09:52:40;;;;;;;12.03;5.90;;;;;4.30;100148.00;;;;5045005;28;20382;-73
2023/12/08 09:55:29;;;;;;;11.83;5.90;;;;;4.30;100153.00;;;;5045597;28;20236;-73
2023/12/08 09:58:17;;;;;;;11.33;6.73;;;;;4.30;100152.00;;;;5039614;28;20266;-73
2023/12/08 10:01:05;;;;;;;14.40;7.77;;;;;4.30;100142.00;;;;5038992;28;20294;-73
2023/12/08 10:03:51;;;;;;;10.90;6.27;;;;;4.40;100147.00;;;;5038800;28;20283;-73
2023/12/08 10:06:39;;;;;;;11.67;6.97;;;;;4.40;100146.00;;;;5039071;28;20244;-73
2023/12/08 10:09:27;;;;;;;9.57;6.97;;;;;4.40;100141.00;;;;5050075;28;20625;-73
2023/12/08 10:12:15;;;;;;;12.50;6.57;;;;;4.50;100151.00;;;;5046886;28;20244;-73
2023/12/08 10:15:02;;;;;;;15.17;7.17;;;;;4.50;100151.00;;;;5044735;28;20306;-73
2023/12/08 10:17:51;;;;;;;15.97;8.43;;;;;4.60;100147.00;;;;5047460;28;20855;-72
2023/12/08 10:20:39;;;;;;;16.90;7.07;;;;;4.50;100142.00;;;;5041809;28;20240;-72
2023/12/08 10:23:27;;;;;;;11.70;7.33;;;;;4.60;100134.00;;;;5044630;28;20435;-74
2023/12/08 10:26:14;;;;;;;12.77;6.30;;;;;4.60;100132.00;;;;5047062;28;20229;-73
2023/12/08 10:29:02;;;;;;;13.90;7.17;;;;;4.60;100127.00;;;;5043666;28;20295;-73
2023/12/08 10:31:48;;;;;;;14.10;7.03;;;;;4.70;100134.00;;;;5040988;28;20287;-74
2023/12/08 10:34:34;;;;;;;13.67;7.27;;;;;4.70;100132.00;;;;5044922;28;20236;-74
2023/12/08 10:37:21;;;;;;;11.37;6.77;;;;;4.70;100127.00;;;;5039039;28;20228;-71
2023/12/08 10:40:09;;;;;;;13.00;6.37;;;;;4.70;100130.00;;;;5042663;28;20295;-73
2023/12/08 10:42:55;;;;;;;17.17;7.40;;;;;4.80;100128.00;;;;5040354;28;20237;-73
2023/12/08 10:45:43;;;;;;;13.53;6.83;;;;;4.80;100126.00;;;;5046353;28;20236;-73
2023/12/08 10:48:30;;;;;;;12.17;6.57;;;;;4.90;100123.00;;;;5039811;28;20239;-72
2023/12/08 10:51:18;;;;;;;12.50;6.53;;;;;4.90;100147.00;;;;5035411;28;20287;-73
2023/12/08 10:54:05;;;;;;;10.17;6.93;;;;;5.00;100136.00;;;;5040813;28;20266;-73
2023/12/08 10:56:51;;;;;;;16.30;8.57;;;;;4.90;100137.00;;;;5043112;28;20279;-74
2023/12/08 10:59:44;;;;;;;11.53;6.90;;;;;5.00;100140.00;;;;5040375;28;20752;-73
2023/12/08 11:02:33;;;;;;;13.77;7.13;;;;;4.90;100141.00;;;;5026381;28;20319;-74
2023/12/08 11:05:26;;;;;;;12.40;6.70;;;;;4.90;100142.00;;;;5031638;28;20865;-73
2023/12/08 11:08:18;;;;;;;11.70;6.50;;;;;5.00;100148.00;;;;5038362;28;20274;-71
2023/12/08 11:11:06;;;;;;;11.27;7.20;;;;;5.00;100153.00;;;;5042743;28;20249;-74
2023/12/08 11:14:01;;;;;;;16.07;8.30;;;;;5.10;100162.00;;;;5042642;28;20240;-72
2023/12/08 11:16:54;;;;;;;12.37;6.73;;;;;5.00;100156.00;;;;5042894;28;20847;-74
2023/12/08 11:19:43;;;;;;;14.40;7.07;;;;;5.00;100159.00;;;;5044369;28;20707;-73
2023/12/08 11:22:30;;;;;;;12.53;7.27;;;;;5.00;100158.00;;;;5042983;28;20375;-75
2023/12/08 11:25:24;;;;;;;16.07;6.40;;;;;5.00;100166.00;;;;5035213;28;20224;-73
2023/12/08 11:28:20;;;;;;;13.40;7.93;;;;;5.10;100160.00;;;;5042854;28;20900;-73
2023/12/08 11:31:14;;;;;;;13.30;7.87;;;;;5.10;100154.00;;;;5044051;28;20232;-73
2023/12/08 11:34:06;;;;;;;14.23;7.10;;;;;5.10;100157.00;;;;5042307;28;20244;-73
2023/12/08 11:36:57;;;;;;;12.30;7.53;;;;;5.10;100153.00;;;;5043411;28;20221;-74
2023/12/08 11:39:45;;;;;;;19.13;7.50;;;;;5.10;100152.00;;;;5042040;28;20229;-72
2023/12/08 11:42:33;;;;;;;14.77;7.97;;;;;5.20;100161.00;;;;5042389;28;20717;-73
2023/12/08 11:45:20;;;;;;;20.87;8.30;;;;;5.20;100171.00;;;;5044599;28;21003;-73
2023/12/08 11:48:12;;;;;;;13.57;7.63;;;;;5.20;100173.00;;;;5040015;28;20999;-73
2023/12/08 11:51:01;;;;;;;13.90;7.00;;;;;5.20;100178.00;;;;5039777;28;20237;-72
2023/12/08 11:53:55;;;;;;;18.67;9.30;;;;;5.20;100169.00;;;;5048581;28;20227;-73
2023/12/08 11:56:45;;;;;;;11.57;7.50;;;;;5.30;100173.00;;;;5042629;28;20229;-73
2023/12/08 11:59:42;;;;;;;17.03;7.37;;;;;5.30;100175.00;;;;5050477;28;20224;-73
2023/12/08 12:02:29;;;;;;;18.07;8.20;;;;;5.30;100157.00;;;;5043326;28;20398;-73
2023/12/08 12:05:16;;;;;;;13.27;7.33;;;;;5.30;100163.00;;;;5048310;28;20252;-73
2023/12/08 12:08:05;;;;;;;11.40;7.37;;;;;5.30;100171.00;;;;5044427;28;20232;-70
2023/12/08 12:10:57;;;;;;;19.20;8.80;;;;;5.30;100171.00;;;;5044245;28;20239;-72
2023/12/08 12:13:43;;;;;;;21.43;9.03;;;;;5.30;100170.00;;;;5047556;28;20286;-73
2023/12/08 12:16:29;;;;;;;15.70;7.23;;;;;5.40;100159.00;;;;5046925;28;20726;-70
2023/12/08 12:19:16;;;;;;;11.87;6.67;;;;;5.40;100147.00;;;;5046970;28;20244;-73
2023/12/08 12:22:04;;;;;;;19.43;7.93;;;;;5.40;100163.00;;;;5049813;28;20725;-73
2023/12/08 12:24:51;;;;;;;16.63;7.53;;;;;5.40;100167.00;;;;5049301;28;20611;-75
2023/12/08 12:27:40;;;;;;;12.27;7.00;;;;;5.50;100160.00;;;;5044649;28;20229;-76
2023/12/08 12:30:27;;;;;;;11.73;6.80;;;;;5.50;100178.00;;;;5043082;28;20617;-75
2023/12/08 12:33:13;;;;;;;12.63;7.27;;;;;5.50;100171.00;;;;5043956;28;20236;-75
2023/12/08 12:36:00;;;;;;;14.57;7.27;;;;;5.50;100166.00;;;;5043879;28;20224;-76
2023/12/08 12:38:47;;;;;;;16.97;8.63;;;;;5.50;100162.00;;;;5040599;28;20370;-72
2023/12/08 12:41:34;;;;;;;12.87;7.90;;;;;5.50;100164.00;;;;5048896;28;20619;-75
2023/12/08 12:44:22;;;;;;;17.83;8.37;;;;;5.60;100168.00;;;;5038139;28;20319;-74
2023/12/08 12:47:10;;;;;;;18.53;8.70;;;;;5.60;100172.00;;;;5044425;28;20240;-75
2023/12/08 12:50:03;;;;;;;18.47;9.00;;;;;5.60;100169.00;;;;5047305;28;20294;-74
2023/12/08 12:52:49;;;;;;;19.37;8.43;;;;;5.60;100175.00;;;;5046709;28;20722;-75
2023/12/08 12:55:36;;;;;;;15.57;8.73;;;;;5.70;100169.00;;;;5042902;28;20908;-76
2023/12/08 12:58:24;;;;;;;20.53;9.07;;;;;5.70;100171.00;;;;5041499;28;20232;-76
2023/12/08 13:01:12;;;;;;;19.13;8.60;;;;;5.80;100173.00;;;;5044354;28;20232;-75
2023/12/08 13:04:00;;;;;;;17.63;9.43;;;;;5.80;100181.00;;;;5043592;28;20270;-76
2023/12/08 13:06:46;;;;;;;16.53;8.93;;;;;5.80;100180.00;;;;5042581;28;20224;-75
2023/12/08 13:09:32;;;;;;;19.93;9.90;;;;;5.80;100180.00;;;;5046753;28;20228;-75
2023/12/08 13:12:19;;;;;;;24.17;9.57;;;;;5.80;100193.00;;;;5050757;28;20331;-75
2023/12/08 13:15:06;;;;;;;24.83;9.53;;;;;5.80;100194.00;;;;5048199;28;20224;-77
2023/12/08 13:17:56;;;;;;;23.27;11.60;;;;;5.80;100188.00;;;;5051852;28;20236;-77
2023/12/08 13:20:42;;;;;;;21.80;9.93;;;;;5.90;100207.00;;;;5047486;28;20232;-77
2023/12/08 13:23:28;;;;;;;25.57;11.37;;;;;5.90;100202.00;;;;5044155;28;20232;-77
2023/12/08 13:26:15;;;;;;;28.80;11.13;;;;;6.00;100199.00;;;;5046025;28;20756;-76
2023/12/08 13:29:02;;;;;;;26.07;10.53;;;;;6.00;100193.00;;;;5037547;28;20603;-76
2023/12/08 13:31:48;;;;;;;17.33;10.47;;;;;6.00;100202.00;;;;5044724;28;20383;-76
2023/12/08 13:34:36;;;;;;;31.63;11.43;;;;;6.00;100205.00;;;;5043750;28;20220;-72
2023/12/08 13:37:22;;;;;;;27.23;11.23;;;;;6.10;100220.00;;;;5035693;28;20237;-75
2023/12/08 13:40:11;;;;;;;23.27;10.63;;;;;6.10;100224.00;;;;5050478;28;20629;-75
2023/12/08 13:42:58;;;;;;;19.93;10.17;;;;;6.00;100225.00;;;;5040689;28;20939;-74
2023/12/08 13:45:45;;;;;;;31.13;12.07;;;;;6.10;100228.00;;;;5032561;28;20417;-72
2023/12/08 13:48:31;;;;;;;29.30;11.53;;;;;6.10;100231.00;;;;5038268;28;20229;-73
2023/12/08 13:51:19;;;;;;;21.50;9.20;;;;;6.20;100232.00;;;;5043656;28;20259;-72
2023/12/08 13:54:25;;;;;;;26.87;11.60;;;;;6.20;100227.00;;;;5043536;28;20225;-72